Time;durP1;ratioP1;P1;durP2;ratioP2;P2;SDS_P1;SDS_P2;PMS_P1;PMS_P2;Temp;Humidity;BMP_temperature;BMP_pressure;BME280_temperature;BME280_humidity;BME280_pressure;Samples;Min_cycle;Max_cycle;Signal;HPM_P1;HPM_P2
2022/10/27 00:00:33;;;;;;;;;;;24.80;98.40;;;;;;5114944;28;20377;-77
2022/10/27 00:02:59;;;;;;;;;;;24.80;98.40;;;;;;5114890;28;20331;-77
2022/10/27 00:05:26;;;;;;;;;;;24.80;98.00;;;;;;5110415;28;19915;-77
2022/10/27 00:07:54;;;;;;;;;;;24.90;98.10;;;;;;5114747;28;20373;-78
2022/10/27 00:10:21;;;;;;;;;;;24.90;97.60;;;;;;5114722;28;19912;-77
2022/10/27 00:12:47;;;;;;;;;;;24.90;98.00;;;;;;5114369;28;19916;-77
2022/10/27 00:15:14;;;;;;;;;;;25.00;97.70;;;;;;5114516;28;20019;-78
2022/10/27 00:17:41;;;;;;;;;;;25.00;97.60;;;;;;5114753;28;19915;-78
2022/10/27 00:20:08;;;;;;;;;;;25.00;98.40;;;;;;5112863;28;19919;-77
2022/10/27 00:22:35;;;;;;;;;;;25.00;97.60;;;;;;5114131;28;19943;-78
2022/10/27 00:25:01;;;;;;;;;;;25.10;97.60;;;;;;5114185;28;19992;-78
2022/10/27 00:27:28;;;;;;;;;;;25.20;97.60;;;;;;5109833;28;19935;-74
2022/10/27 00:29:55;;;;;;;;;;;25.30;97.00;;;;;;5073767;28;19954;-76
2022/10/27 00:32:21;;;;;;;;;;;25.60;96.70;;;;;;5073521;28;19912;-76
2022/10/27 00:34:48;;;;;;;;;;;25.60;96.70;;;;;;5073479;28;19912;-73
2022/10/27 00:37:15;;;;;;;;;;;25.70;96.30;;;;;;5074010;28;19954;-74
2022/10/27 00:39:42;;;;;;;;;;;25.70;96.80;;;;;;5073417;28;19948;-70
2022/10/27 00:42:11;;;;;;;;;;;25.80;96.40;;;;;;5074551;28;19919;-70
2022/10/27 00:44:39;;;;;;;;;;;25.80;96.40;;;;;;5109381;28;20338;-74
2022/10/27 00:47:09;;;;;;;;;;;25.90;96.00;;;;;;5113878;28;19908;-75
2022/10/27 00:49:38;;;;;;;;;;;26.40;96.20;;;;;;5073610;28;19912;-74
2022/10/27 00:52:12;;;;;;;;;;;26.80;95.10;;;;;;5072949;28;19955;-76
2022/10/27 00:54:40;;;;;;;;;;;27.00;95.30;;;;;;5073160;28;19963;-70
2022/10/27 00:57:07;;;;;;;;;;;27.30;93.70;;;;;;5078761;28;20274;-70
2022/10/27 00:59:35;;;;;;;;;;;27.60;93.30;;;;;;5113973;28;20341;-70
2022/10/27 01:02:02;;;;;;;;;;;27.90;92.30;;;;;;5113382;28;19923;-71
2022/10/27 01:04:51;;;;;;;;;;;28.20;91.30;;;;;;5113788;28;19908;-71
2022/10/27 01:07:19;;;;;;;;;;;28.00;92.60;;;;;;5105696;28;19908;-71
2022/10/27 01:09:46;;;;;;;;;;;28.00;92.00;;;;;;5111680;28;19964;-71
2022/10/27 01:12:13;;;;;;;;;;;28.00;91.30;;;;;;5113525;28;20350;-69
2022/10/27 01:14:40;;;;;;;;;;;28.10;90.60;;;;;;5113666;28;19908;-74
2022/10/27 01:17:06;;;;;;;;;;;28.10;90.80;;;;;;5113424;28;19931;-70
2022/10/27 01:19:42;;;;;;;;;;;28.00;90.90;;;;;;5113653;28;20391;-72
2022/10/27 01:22:29;;;;;;;;;;;28.40;90.70;;;;;;5113006;28;19928;-71
2022/10/27 01:25:02;;;;;;;;;;;28.60;90.30;;;;;;5093304;28;20022;-71
2022/10/27 01:27:46;;;;;;;;;;;28.40;90.00;;;;;;5112739;28;19916;-71
2022/10/27 01:30:20;;;;;;;;;;;28.00;90.50;;;;;;5113368;28;20328;-71
2022/10/27 01:32:55;;;;;;;;;;;27.50;90.80;;;;;;5112873;28;19919;-70
2022/10/27 01:35:28;;;;;;;;;;;27.20;92.10;;;;;;5113373;28;19908;-71
2022/10/27 01:37:54;;;;;;;;;;;26.90;91.40;;;;;;5112755;28;20038;-72
2022/10/27 01:40:27;;;;;;;;;;;26.60;91.50;;;;;;5109670;28;20384;-71
2022/10/27 01:42:58;;;;;;;;;;;26.40;92.30;;;;;;5112892;28;19916;-70
2022/10/27 01:45:27;;;;;;;;;;;26.20;92.70;;;;;;5112991;28;19947;-70
2022/10/27 01:47:55;;;;;;;;;;;25.80;96.40;;;;;;5106318;28;19908;-71
2022/10/27 01:50:30;;;;;;;;;;;24.80;99.90;;;;;;5092179;28;19990;-69
2022/10/27 01:52:56;;;;;;;;;;;23.40;99.90;;;;;;5091599;28;19912;-69
2022/10/27 01:55:23;;;;;;;;;;;22.40;99.90;;;;;;5112911;28;20370;-69
2022/10/27 01:57:52;;;;;;;;;;;21.50;99.90;;;;;;5106376;28;20278;-71
2022/10/27 02:00:19;;;;;;;;;;;20.80;99.90;;;;;;5112589;28;19991;-69
2022/10/27 02:02:49;;;;;;;;;;;20.20;99.90;;;;;;5112453;28;19922;-71
2022/10/27 02:05:21;;;;;;;;;;;19.90;99.90;;;;;;5112721;28;19915;-70
2022/10/27 02:07:55;;;;;;;;;;;19.60;99.90;;;;;;5111100;28;19908;-69
2022/10/27 02:10:24;;;;;;;;;;;19.50;99.90;;;;;;5112497;28;19908;-69
2022/10/27 02:12:52;;;;;;;;;;;19.60;99.90;;;;;;5111001;28;19915;-73
2022/10/27 02:15:41;;;;;;;;;;;19.70;99.90;;;;;;5112330;28;19918;-69
2022/10/27 02:18:10;;;;;;;;;;;19.70;99.90;;;;;;5112617;28;19984;-69
2022/10/27 02:20:39;;;;;;;;;;;19.90;99.90;;;;;;5112371;28;19915;-72
2022/10/27 02:23:07;;;;;;;;;;;20.10;99.90;;;;;;5110186;28;19970;-70
2022/10/27 02:25:41;;;;;;;;;;;20.20;99.90;;;;;;5112639;28;19950;-70
2022/10/27 02:28:09;;;;;;;;;;;20.20;99.90;;;;;;5112645;28;19939;-72
2022/10/27 02:30:36;;;;;;;;;;;20.30;99.90;;;;;;5112374;28;20427;-70
2022/10/27 02:33:03;;;;;;;;;;;20.50;99.90;;;;;;5112292;28;19911;-72
2022/10/27 02:35:30;;;;;;;;;;;20.70;99.90;;;;;;5112349;28;19918;-70
2022/10/27 02:37:58;;;;;;;;;;;20.80;99.90;;;;;;5111668;28;20335;-71
2022/10/27 02:40:24;;;;;;;;;;;21.00;99.90;;;;;;5116360;28;19911;-73
2022/10/27 02:42:51;;;;;;;;;;;21.00;99.90;;;;;;5116296;28;19916;-70
2022/10/27 02:45:19;;;;;;;;;;;21.00;99.90;;;;;;5116871;28;19907;-72
2022/10/27 02:47:45;;;;;;;;;;;21.00;99.90;;;;;;5110796;28;19953;-71
2022/10/27 02:50:12;;;;;;;;;;;21.20;99.90;;;;;;5096394;28;19915;-70
2022/10/27 02:52:41;;;;;;;;;;;21.30;99.90;;;;;;5100428;28;19915;-71
2022/10/27 02:55:08;;;;;;;;;;;21.40;99.90;;;;;;5116195;28;19912;-70
2022/10/27 02:57:35;;;;;;;;;;;21.50;99.90;;;;;;5116275;28;19919;-72
2022/10/27 03:00:01;;;;;;;;;;;21.70;99.90;;;;;;5116354;28;19911;-73
2022/10/27 03:02:28;;;;;;;;;;;22.00;99.90;;;;;;5115864;28;20011;-72
2022/10/27 03:04:55;;;;;;;;;;;22.20;99.90;;;;;;5116127;28;19939;-74
2022/10/27 03:07:22;;;;;;;;;;;22.40;99.90;;;;;;5114597;28;20396;-71
2022/10/27 03:09:48;;;;;;;;;;;22.40;99.90;;;;;;5116043;28;19919;-73
2022/10/27 03:12:15;;;;;;;;;;;22.30;99.90;;;;;;5115907;28;19958;-71
2022/10/27 03:14:42;;;;;;;;;;;22.30;99.90;;;;;;5116122;28;20392;-74
2022/10/27 03:17:08;;;;;;;;;;;22.30;99.90;;;;;;5115987;28;19956;-71
2022/10/27 03:19:35;;;;;;;;;;;22.40;99.90;;;;;;5116183;28;20030;-73
2022/10/27 03:22:02;;;;;;;;;;;22.30;99.90;;;;;;5113419;28;19947;-75
2022/10/27 03:24:29;;;;;;;;;;;22.30;99.90;;;;;;5116128;28;19908;-72
2022/10/27 03:26:55;;;;;;;;;;;22.20;99.90;;;;;;5097407;28;19961;-75
2022/10/27 03:29:22;;;;;;;;;;;22.30;99.90;;;;;;5115978;28;19953;-72
2022/10/27 03:31:49;;;;;;;;;;;22.40;99.90;;;;;;5115258;28;20373;-72
2022/10/27 03:34:15;;;;;;;;;;;22.50;99.90;;;;;;5115798;28;19912;-72
2022/10/27 03:36:42;;;;;;;;;;;22.50;99.90;;;;;;5113596;28;19912;-71
2022/10/27 03:39:09;;;;;;;;;;;22.50;99.90;;;;;;5115534;28;19998;-70
2022/10/27 03:41:35;;;;;;;;;;;22.50;99.90;;;;;;5115121;28;19918;-72
2022/10/27 03:44:02;;;;;;;;;;;22.50;99.90;;;;;;5115404;28;20320;-71
2022/10/27 03:46:28;;;;;;;;;;;22.40;99.90;;;;;;5115473;28;19907;-70
2022/10/27 03:48:55;;;;;;;;;;;22.40;99.90;;;;;;5100049;28;19929;-73
2022/10/27 03:51:22;;;;;;;;;;;22.40;99.90;;;;;;5096832;28;19966;-75
2022/10/27 03:53:48;;;;;;;;;;;22.50;99.90;;;;;;5113943;28;19918;-75
2022/10/27 03:56:15;;;;;;;;;;;22.60;99.90;;;;;;5115440;28;20343;-73
2022/10/27 03:58:42;;;;;;;;;;;22.70;99.90;;;;;;5097099;28;20314;-72
2022/10/27 04:01:09;;;;;;;;;;;22.80;99.90;;;;;;5114787;28;19907;-72
2022/10/27 04:03:36;;;;;;;;;;;22.80;99.90;;;;;;5115376;28;19965;-75
2022/10/27 04:06:02;;;;;;;;;;;23.00;99.90;;;;;;5113383;28;20056;-77
2022/10/27 04:08:29;;;;;;;;;;;23.10;99.90;;;;;;5115920;28;19918;-72
2022/10/27 04:10:55;;;;;;;;;;;23.10;99.90;;;;;;5116906;28;19912;-73
2022/10/27 04:13:22;;;;;;;;;;;23.30;99.90;;;;;;5115075;28;20058;-70
2022/10/27 04:15:49;;;;;;;;;;;23.20;99.90;;;;;;5115614;28;19911;-71
2022/10/27 04:18:15;;;;;;;;;;;23.20;99.90;;;;;;5115760;28;19918;-70
2022/10/27 04:20:42;;;;;;;;;;;23.20;99.90;;;;;;5115539;28;20064;-72
2022/10/27 04:23:09;;;;;;;;;;;23.20;99.90;;;;;;5116592;28;20282;-73
2022/10/27 04:25:35;;;;;;;;;;;23.20;99.90;;;;;;5116489;28;19911;-73
2022/10/27 04:28:03;;;;;;;;;;;23.20;99.90;;;;;;5119821;28;20358;-71
2022/10/27 04:30:30;;;;;;;;;;;23.30;99.90;;;;;;5120074;28;19953;-74
2022/10/27 04:32:57;;;;;;;;;;;23.30;99.90;;;;;;5117212;28;19990;-72
2022/10/27 04:35:23;;;;;;;;;;;23.30;99.90;;;;;;5122161;28;19979;-73
2022/10/27 04:37:50;;;;;;;;;;;23.30;99.90;;;;;;5125284;28;19962;-71
2022/10/27 04:40:17;;;;;;;;;;;23.30;99.90;;;;;;5118243;28;19916;-71
2022/10/27 04:42:45;;;;;;;;;;;23.40;99.90;;;;;;5117405;28;19915;-73
2022/10/27 04:45:12;;;;;;;;;;;23.40;99.90;;;;;;5120827;28;19907;-72
2022/10/27 04:47:39;;;;;;;;;;;23.40;99.90;;;;;;5117988;28;20390;-71
2022/10/27 04:50:06;;;;;;;;;;;23.40;99.90;;;;;;5106348;28;20003;-70
2022/10/27 04:52:33;;;;;;;;;;;23.30;99.90;;;;;;5126673;28;19907;-71
2022/10/27 04:54:59;;;;;;;;;;;23.30;99.90;;;;;;5125379;28;19912;-73
2022/10/27 04:57:26;;;;;;;;;;;23.30;99.90;;;;;;5129176;28;19912;-72
2022/10/27 04:59:53;;;;;;;;;;;23.30;99.90;;;;;;5126614;28;19911;-70
2022/10/27 05:02:19;;;;;;;;;;;23.20;99.90;;;;;;5131982;28;19916;-76
2022/10/27 05:04:46;;;;;;;;;;;23.20;99.90;;;;;;5130144;28;19912;-76
2022/10/27 05:07:13;;;;;;;;;;;23.30;99.90;;;;;;5112655;28;19908;-75
2022/10/27 05:09:39;;;;;;;;;;;23.30;99.90;;;;;;5124014;28;19930;-76
2022/10/27 05:12:06;;;;;;;;;;;23.30;99.90;;;;;;5119085;28;20273;-77
2022/10/27 05:14:32;;;;;;;;;;;23.30;99.90;;;;;;5118314;28;19908;-75
2022/10/27 05:16:59;;;;;;;;;;;23.40;99.90;;;;;;5119457;28;20044;-75
2022/10/27 05:19:26;;;;;;;;;;;23.50;99.90;;;;;;5119820;28;19918;-74
2022/10/27 05:21:52;;;;;;;;;;;23.50;99.90;;;;;;5117412;28;19977;-77
2022/10/27 05:24:19;;;;;;;;;;;23.50;99.90;;;;;;5119030;28;19937;-76
2022/10/27 05:26:46;;;;;;;;;;;23.60;99.90;;;;;;5117051;28;19911;-75
2022/10/27 05:29:12;;;;;;;;;;;23.70;99.90;;;;;;5117304;28;19915;-77
2022/10/27 05:31:39;;;;;;;;;;;23.70;99.90;;;;;;5116317;28;19907;-77
2022/10/27 05:34:06;;;;;;;;;;;23.80;99.90;;;;;;5115737;28;19908;-76
2022/10/27 05:36:32;;;;;;;;;;;23.90;99.90;;;;;;5113824;28;20282;-77
2022/10/27 05:38:59;;;;;;;;;;;24.00;99.90;;;;;;5113906;28;20365;-77
2022/10/27 05:41:26;;;;;;;;;;;24.10;99.90;;;;;;5114335;28;19907;-77
2022/10/27 05:43:52;;;;;;;;;;;24.20;99.90;;;;;;5096656;28;20394;-77
2022/10/27 05:46:19;;;;;;;;;;;24.10;99.90;;;;;;5114563;28;19911;-77
2022/10/27 05:48:45;;;;;;;;;;;24.20;99.90;;;;;;5100455;28;19908;-75
2022/10/27 05:51:12;;;;;;;;;;;24.10;99.90;;;;;;5093560;28;19921;-75
2022/10/27 05:53:39;;;;;;;;;;;24.00;99.90;;;;;;5110912;28;19912;-77
2022/10/27 05:56:06;;;;;;;;;;;24.00;99.90;;;;;;5112083;28;20012;-78
2022/10/27 05:58:32;;;;;;;;;;;24.00;99.90;;;;;;5111656;28;19912;-72
2022/10/27 06:00:59;;;;;;;;;;;24.00;99.90;;;;;;5111457;28;20255;-77
2022/10/27 06:03:26;;;;;;;;;;;24.00;99.90;;;;;;5111948;28;19926;-77
2022/10/27 06:05:53;;;;;;;;;;;24.00;99.90;;;;;;5096802;28;20448;-77
2022/10/27 06:08:19;;;;;;;;;;;24.00;99.90;;;;;;5110601;28;20570;-76
2022/10/27 06:10:46;;;;;;;;;;;24.10;99.90;;;;;;5110507;28;19960;-77
2022/10/27 06:13:13;;;;;;;;;;;24.10;99.90;;;;;;5111103;28;19962;-78
2022/10/27 06:15:40;;;;;;;;;;;24.00;99.90;;;;;;5111295;28;19908;-78
2022/10/27 06:18:06;;;;;;;;;;;24.10;99.90;;;;;;5111103;28;20003;-76
2022/10/27 06:20:33;;;;;;;;;;;24.20;99.90;;;;;;5109286;28;19916;-78
2022/10/27 06:23:00;;;;;;;;;;;24.20;99.90;;;;;;5092555;28;19973;-78
2022/10/27 06:25:30;;;;;;;;;;;24.00;99.80;;;;;;5109873;28;20127;-76
2022/10/27 06:27:57;;;;;;;;;;;24.00;99.90;;;;;;5092772;28;19918;-76
2022/10/27 06:30:24;;;;;;;;;;;24.10;99.10;;;;;;5110611;28;19916;-78
2022/10/27 06:32:50;;;;;;;;;;;24.10;99.20;;;;;;5110697;28;19916;-78
2022/10/27 06:35:17;;;;;;;;;;;24.10;99.00;;;;;;5109602;28;20010;-78
2022/10/27 06:37:45;;;;;;;;;;;24.10;98.50;;;;;;5070728;28;19919;-78
2022/10/27 06:40:13;;;;;;;;;;;24.20;99.80;;;;;;5070320;28;20392;-76
2022/10/27 06:42:40;;;;;;;;;;;24.20;97.00;;;;;;5070008;28;20058;-74
2022/10/27 06:45:07;;;;;;;;;;;24.30;97.10;;;;;;5069492;28;20371;-77
2022/10/27 06:47:34;;;;;;;;;;;24.40;96.20;;;;;;5073476;28;19914;-75
2022/10/27 06:50:00;;;;;;;;;;;24.40;96.90;;;;;;5110325;28;19912;-77
2022/10/27 06:52:27;;;;;;;;;;;24.40;96.40;;;;;;5110412;28;19965;-76
2022/10/27 06:54:54;;;;;;;;;;;24.30;96.70;;;;;;5110220;28;19980;-78
2022/10/27 06:57:20;;;;;;;;;;;24.30;96.30;;;;;;5110546;28;20342;-77
2022/10/27 06:59:47;;;;;;;;;;;24.30;97.70;;;;;;5109750;28;20384;-76
2022/10/27 07:02:14;;;;;;;;;;;24.30;96.20;;;;;;5109939;28;19923;-74
2022/10/27 07:04:40;;;;;;;;;;;24.30;95.90;;;;;;5070234;28;19920;-73
2022/10/27 07:07:07;;;;;;;;;;;24.30;95.90;;;;;;5069459;28;20325;-75
2022/10/27 07:09:34;;;;;;;;;;;24.30;96.00;;;;;;5069077;28;20355;-76
2022/10/27 07:12:00;;;;;;;;;;;24.30;95.80;;;;;;5051310;28;19969;-74
2022/10/27 07:14:27;;;;;;;;;;;24.20;96.00;;;;;;5069005;28;19955;-77
2022/10/27 07:16:53;;;;;;;;;;;24.20;95.40;;;;;;5074997;28;19915;-77
2022/10/27 07:19:20;;;;;;;;;;;24.30;95.60;;;;;;5110093;28;19912;-78
2022/10/27 07:21:47;;;;;;;;;;;24.20;95.10;;;;;;5103965;28;19975;-74
2022/10/27 07:24:14;;;;;;;;;;;24.10;95.40;;;;;;5104340;28;19919;-77
2022/10/27 07:26:41;;;;;;;;;;;24.00;95.60;;;;;;5089277;28;19923;-77
2022/10/27 07:29:08;;;;;;;;;;;24.00;96.40;;;;;;5088742;28;20010;-73
2022/10/27 07:31:34;;;;;;;;;;;24.00;95.60;;;;;;5087776;28;19912;-76
2022/10/27 07:34:01;;;;;;;;;;;24.00;95.20;;;;;;5107696;28;19919;-74
2022/10/27 07:36:28;;;;;;;;;;;24.00;95.30;;;;;;5107495;28;19916;-77
2022/10/27 07:38:54;;;;;;;;;;;23.90;95.30;;;;;;5108184;28;20003;-76
2022/10/27 07:41:21;;;;;;;;;;;23.90;96.80;;;;;;5107244;28;19951;-74
2022/10/27 07:43:48;;;;;;;;;;;23.90;97.60;;;;;;5107465;28;19919;-77
2022/10/27 07:46:15;;;;;;;;;;;23.80;98.10;;;;;;5106731;28;19934;-75
2022/10/27 07:48:41;;;;;;;;;;;23.70;98.60;;;;;;5094191;28;19916;-72
2022/10/27 07:51:08;;;;;;;;;;;23.70;98.90;;;;;;5085396;28;19962;-76
2022/10/27 07:53:35;;;;;;;;;;;23.60;98.90;;;;;;5087285;28;19912;-78
2022/10/27 07:56:02;;;;;;;;;;;23.60;98.90;;;;;;5086603;28;19930;-77
2022/10/27 07:58:29;;;;;;;;;;;23.50;98.90;;;;;;5085069;28;19912;-75
2022/10/27 08:00:56;;;;;;;;;;;23.50;99.30;;;;;;5091951;28;19953;-74
2022/10/27 08:03:25;;;;;;;;;;;23.40;99.60;;;;;;5107492;28;19924;-76
2022/10/27 08:05:51;;;;;;;;;;;23.40;99.80;;;;;;5107048;28;19911;-77
2022/10/27 08:08:18;;;;;;;;;;;23.30;99.90;;;;;;5107637;28;19915;-78
2022/10/27 08:10:45;;;;;;;;;;;23.20;99.90;;;;;;5113598;28;19915;-76
2022/10/27 08:13:12;;;;;;;;;;;23.10;99.90;;;;;;5115270;28;19912;-77
2022/10/27 08:15:39;;;;;;;;;;;23.00;99.90;;;;;;5107387;28;19908;-77
2022/10/27 08:18:08;;;;;;;;;;;23.00;99.90;;;;;;5106983;28;20327;-78
2022/10/27 08:20:39;;;;;;;;;;;22.90;99.90;;;;;;5113652;28;19914;-77
2022/10/27 08:23:08;;;;;;;;;;;22.80;99.90;;;;;;5114623;28;19920;-77
2022/10/27 08:25:34;;;;;;;;;;;22.80;99.90;;;;;;5114601;28;19961;-76
2022/10/27 08:28:01;;;;;;;;;;;22.70;99.00;;;;;;5114903;28;19919;-78
2022/10/27 08:30:29;;;;;;;;;;;22.80;98.90;;;;;;5112949;28;19995;-78
2022/10/27 08:32:57;;;;;;;;;;;22.70;98.60;;;;;;5114137;28;19912;-78
2022/10/27 08:35:24;;;;;;;;;;;22.70;98.50;;;;;;5113023;28;19919;-77
2022/10/27 08:37:57;;;;;;;;;;;22.70;98.00;;;;;;5112984;28;19998;-77
2022/10/27 08:40:24;;;;;;;;;;;22.70;98.50;;;;;;5113090;28;19908;-78
2022/10/27 08:43:03;;;;;;;;;;;22.70;98.00;;;;;;5113129;28;19924;-73
2022/10/27 08:45:33;;;;;;;;;;;22.60;97.90;;;;;;5078741;28;20288;-78
2022/10/27 08:48:00;;;;;;;;;;;22.60;97.30;;;;;;5080252;28;19925;-77
2022/10/27 08:50:30;;;;;;;;;;;22.60;97.20;;;;;;5093759;28;19958;-76
2022/10/27 08:53:04;;;;;;;;;;;22.50;97.70;;;;;;5076071;28;19999;-79
2022/10/27 08:55:36;;;;;;;;;;;22.50;96.80;;;;;;5095033;28;19908;-78
2022/10/27 08:58:21;;;;;;;;;;;22.50;96.20;;;;;;5094335;28;19908;-77
2022/10/27 09:00:48;;;;;;;;;;;22.50;96.10;;;;;;5073546;28;20401;-78
2022/10/27 09:03:14;;;;;;;;;;;22.40;96.80;;;;;;5073943;28;19916;-76
2022/10/27 09:05:41;;;;;;;;;;;22.40;96.80;;;;;;5073840;28;19941;-77
2022/10/27 09:08:11;;;;;;;;;;;22.30;96.50;;;;;;5073364;28;19915;-75
2022/10/27 09:10:40;;;;;;;;;;;22.30;96.40;;;;;;5072735;28;20725;-77
2022/10/27 09:13:39;;;;;;;;;;;22.20;96.30;;;;;;5082930;28;19918;-77
2022/10/27 09:16:08;;;;;;;;;;;22.20;95.80;;;;;;5079284;28;20430;-76
2022/10/27 09:18:40;;;;;;;;;;;22.10;95.80;;;;;;5113591;28;19911;-78
2022/10/27 09:21:16;;;;;;;;;;;22.10;95.80;;;;;;5112995;28;20326;-77
2022/10/27 09:24:03;;;;;;;;;;;22.10;95.90;;;;;;5113554;28;19916;-77
2022/10/27 09:26:31;;;;;;;;;;;22.10;95.70;;;;;;5113576;28;19911;-74
2022/10/27 09:29:01;;;;;;;;;;;22.00;95.80;;;;;;5111865;28;20341;-78
2022/10/27 09:31:32;;;;;;;;;;;22.00;95.70;;;;;;5094752;28;19908;-77
2022/10/27 09:34:05;;;;;;;;;;;22.00;96.90;;;;;;5113486;28;19953;-77
2022/10/27 09:36:32;;;;;;;;;;;21.90;96.00;;;;;;5113232;28;19911;-76
2022/10/27 09:38:58;;;;;;;;;;;21.90;95.90;;;;;;5107002;28;19994;-78
2022/10/27 09:41:25;;;;;;;;;;;21.90;96.10;;;;;;5111720;28;19919;-78
2022/10/27 09:43:54;;;;;;;;;;;21.90;96.20;;;;;;5108269;28;19919;-77
2022/10/27 09:46:26;;;;;;;;;;;21.90;95.80;;;;;;5113319;28;19908;-77
2022/10/27 09:49:10;;;;;;;;;;;21.90;96.10;;;;;;5097441;28;19916;-78
2022/10/27 09:51:40;;;;;;;;;;;21.90;96.00;;;;;;5092236;28;20365;-77
2022/10/27 09:54:26;;;;;;;;;;;21.90;96.40;;;;;;5092645;28;19918;-77
2022/10/27 09:56:53;;;;;;;;;;;21.80;97.20;;;;;;5092443;28;20325;-77
2022/10/27 09:59:21;;;;;;;;;;;21.80;97.20;;;;;;5098098;28;20022;-73
2022/10/27 10:01:58;;;;;;;;;;;21.80;97.40;;;;;;5104362;28;19980;-76
2022/10/27 10:04:25;;;;;;;;;;;21.70;97.10;;;;;;5104619;28;19945;-79
2022/10/27 10:06:56;;;;;;;;;;;21.70;97.00;;;;;;5104258;28;19915;-73
2022/10/27 10:09:27;;;;;;;;;;;21.70;96.80;;;;;;5085915;28;19969;-75
2022/10/27 10:12:16;;;;;;;;;;;21.70;97.00;;;;;;5084997;28;19948;-78
2022/10/27 10:14:43;;;;;;;;;;;21.80;97.30;;;;;;5102916;28;19923;-78
2022/10/27 10:17:18;;;;;;;;;;;21.70;97.20;;;;;;5103920;28;19919;-73
2022/10/27 10:19:46;;;;;;;;;;;21.70;97.00;;;;;;5103888;28;19912;-76
2022/10/27 10:22:32;;;;;;;;;;;21.70;97.80;;;;;;5104191;28;19946;-77
2022/10/27 10:25:15;;;;;;;;;;;21.70;97.70;;;;;;5103901;28;19919;-75
2022/10/27 10:27:45;;;;;;;;;;;21.60;97.90;;;;;;5102667;28;19915;-77
2022/10/27 10:30:18;;;;;;;;;;;21.60;98.20;;;;;;5101409;28;19916;-77
2022/10/27 10:32:48;;;;;;;;;;;21.60;98.30;;;;;;5104141;28;19918;-71
2022/10/27 10:35:36;;;;;;;;;;;21.60;97.80;;;;;;5103718;28;19943;-76
2022/10/27 10:38:19;;;;;;;;;;;21.60;97.80;;;;;;5103714;28;19919;-71
2022/10/27 10:40:55;;;;;;;;;;;21.60;98.30;;;;;;5103809;28;19912;-76
2022/10/27 10:43:22;;;;;;;;;;;21.60;98.10;;;;;;5102753;28;20302;-75
2022/10/27 10:45:52;;;;;;;;;;;21.60;98.20;;;;;;5103697;28;19912;-72
2022/10/27 10:48:24;;;;;;;;;;;21.60;98.80;;;;;;5093889;28;19912;-78
2022/10/27 10:50:51;;;;;;;;;;;21.50;98.80;;;;;;5082905;28;19916;-75
2022/10/27 10:53:22;;;;;;;;;;;21.50;97.60;;;;;;5083749;28;19942;-76
2022/10/27 10:55:49;;;;;;;;;;;21.50;98.30;;;;;;5083822;28;19970;-73
2022/10/27 10:58:17;;;;;;;;;;;21.50;99.30;;;;;;5103825;28;19915;-75
2022/10/27 11:00:53;;;;;;;;;;;21.50;98.10;;;;;;5105921;28;19912;-73
2022/10/27 11:03:21;;;;;;;;;;;21.50;98.70;;;;;;5108166;28;20448;-72
2022/10/27 11:05:58;;;;;;;;;;;21.50;99.10;;;;;;5107531;28;19923;-71
2022/10/27 11:08:43;;;;;;;;;;;21.50;99.50;;;;;;5107745;28;19919;-71
2022/10/27 11:11:16;;;;;;;;;;;21.50;99.20;;;;;;5103604;28;19939;-76
2022/10/27 11:13:46;;;;;;;;;;;21.40;98.40;;;;;;5107830;28;19916;-74
2022/10/27 11:16:13;;;;;;;;;;;21.40;99.10;;;;;;5107522;28;19915;-76
2022/10/27 11:18:39;;;;;;;;;;;21.40;99.30;;;;;;5107366;28;19959;-73
2022/10/27 11:21:08;;;;;;;;;;;21.30;99.50;;;;;;5106922;28;20010;-74
2022/10/27 11:23:52;;;;;;;;;;;21.30;99.80;;;;;;5107242;28;20766;-75
2022/10/27 11:26:22;;;;;;;;;;;21.30;99.60;;;;;;5104449;28;20008;-74
2022/10/27 11:28:51;;;;;;;;;;;21.30;99.80;;;;;;5107417;28;19918;-74
2022/10/27 11:31:24;;;;;;;;;;;21.30;99.20;;;;;;5106567;28;19911;-76
2022/10/27 11:34:23;;;;;;;;;;;21.20;99.70;;;;;;5107666;28;19912;-76
2022/10/27 11:37:05;;;;;;;;;;;21.20;99.60;;;;;;5072468;28;20508;-77
2022/10/27 11:39:36;;;;;;;;;;;21.10;99.90;;;;;;5107371;28;20026;-71
2022/10/27 11:42:22;;;;;;;;;;;21.10;99.90;;;;;;5088479;28;19950;-73
2022/10/27 11:45:09;;;;;;;;;;;21.10;99.90;;;;;;5087642;28;20018;-75
2022/10/27 11:47:49;;;;;;;;;;;21.00;99.90;;;;;;5063122;28;20354;-70
2022/10/27 11:50:21;;;;;;;;;;;20.90;99.90;;;;;;5086582;28;19912;-69
2022/10/27 11:52:49;;;;;;;;;;;20.90;99.90;;;;;;5086423;28;19912;-77
2022/10/27 11:55:17;;;;;;;;;;;20.90;99.90;;;;;;5095310;28;20056;-75
2022/10/27 11:57:47;;;;;;;;;;;20.80;99.90;;;;;;5106720;28;20010;-70
2022/10/27 12:00:24;;;;;;;;;;;20.80;99.90;;;;;;5106589;28;19911;-69
2022/10/27 12:02:51;;;;;;;;;;;20.80;99.90;;;;;;5106744;28;19959;-74
2022/10/27 12:05:41;;;;;;;;;;;20.70;99.90;;;;;;5106950;28;19911;-70
2022/10/27 12:08:26;;;;;;;;;;;20.70;99.90;;;;;;5098787;28;19922;-69
2022/10/27 12:10:59;;;;;;;;;;;20.70;99.90;;;;;;5103977;28;19920;-74
2022/10/27 12:13:33;;;;;;;;;;;20.70;99.90;;;;;;5107556;28;20006;-75
2022/10/27 12:16:02;;;;;;;;;;;20.70;99.90;;;;;;5107245;28;19951;-71
2022/10/27 12:18:29;;;;;;;;;;;20.70;99.90;;;;;;5107346;28;19911;-73
2022/10/27 12:20:58;;;;;;;;;;;20.70;99.90;;;;;;5106307;28;20155;-75
2022/10/27 12:23:26;;;;;;;;;;;20.70;99.90;;;;;;5106492;28;19961;-75
2022/10/27 12:25:55;;;;;;;;;;;20.70;99.90;;;;;;5116040;28;20346;-75
2022/10/27 12:28:24;;;;;;;;;;;20.70;99.90;;;;;;5115321;28;19986;-77
2022/10/27 12:30:51;;;;;;;;;;;20.70;99.90;;;;;;5116128;28;19907;-71
2022/10/27 12:33:44;;;;;;;;;;;20.70;99.90;;;;;;5116371;28;19953;-75
2022/10/27 12:36:16;;;;;;;;;;;20.70;99.90;;;;;;5113275;28;19915;-70
2022/10/27 12:39:01;;;;;;;;;;;20.70;99.90;;;;;;5096121;28;19920;-70
2022/10/27 12:41:46;;;;;;;;;;;20.60;99.90;;;;;;5105262;28;19916;-70
2022/10/27 12:44:12;;;;;;;;;;;20.60;99.90;;;;;;5115102;28;20030;-71
2022/10/27 12:47:02;;;;;;;;;;;20.60;99.90;;;;;;5114994;28;19958;-75
2022/10/27 12:49:35;;;;;;;;;;;20.60;99.90;;;;;;5094770;28;19908;-73
2022/10/27 12:52:13;;;;;;;;;;;20.60;99.90;;;;;;5093042;28;19989;-70
2022/10/27 12:55:00;;;;;;;;;;;20.50;99.90;;;;;;5114163;28;19908;-75
2022/10/27 12:57:32;;;;;;;;;;;20.50;99.90;;;;;;5114341;28;19947;-74
2022/10/27 12:59:59;;;;;;;;;;;20.50;99.90;;;;;;5113635;28;20381;-77
2022/10/27 13:02:29;;;;;;;;;;;20.50;99.90;;;;;;5114078;28;19926;-77
2022/10/27 13:05:14;;;;;;;;;;;20.50;99.90;;;;;;5113770;28;19935;-76
2022/10/27 13:07:49;;;;;;;;;;;20.50;99.90;;;;;;5102092;28;19962;-72
2022/10/27 13:10:29;;;;;;;;;;;20.40;99.90;;;;;;5054701;28;19962;-74
2022/10/27 13:12:56;;;;;;;;;;;20.30;99.90;;;;;;5072994;28;19912;-74
2022/10/27 13:15:44;;;;;;;;;;;20.30;99.90;;;;;;5055239;28;19909;-76
2022/10/27 13:18:17;;;;;;;;;;;20.30;99.90;;;;;;5055221;28;19912;-77
2022/10/27 13:21:12;;;;;;;;;;;20.20;99.90;;;;;;5072625;28;19912;-71
2022/10/27 13:23:39;;;;;;;;;;;20.20;99.90;;;;;;5067201;28;19917;-71
2022/10/27 13:26:18;;;;;;;;;;;20.20;99.90;;;;;;5073597;28;19930;-73
2022/10/27 13:28:48;;;;;;;;;;;20.20;99.90;;;;;;5072988;28;19909;-73
2022/10/27 13:31:24;;;;;;;;;;;20.20;99.90;;;;;;5080790;28;19985;-74
2022/10/27 13:34:09;;;;;;;;;;;20.10;99.90;;;;;;5093164;28;20362;-76
2022/10/27 13:36:38;;;;;;;;;;;20.10;99.90;;;;;;5092913;28;19990;-72
2022/10/27 13:39:14;;;;;;;;;;;20.00;99.90;;;;;;5092965;28;20073;-72
2022/10/27 13:41:59;;;;;;;;;;;20.10;99.90;;;;;;5093071;28;19954;-71
2022/10/27 13:44:29;;;;;;;;;;;20.00;99.90;;;;;;5090912;28;20043;-71
2022/10/27 13:47:02;;;;;;;;;;;20.00;99.90;;;;;;5092695;28;19939;-77
2022/10/27 13:49:40;;;;;;;;;;;20.00;99.90;;;;;;5092369;28;19912;-71
2022/10/27 13:52:27;;;;;;;;;;;20.00;99.90;;;;;;5092632;28;20429;-72
2022/10/27 13:54:55;;;;;;;;;;;20.00;99.90;;;;;;5092211;28;19919;-73
2022/10/27 13:57:40;;;;;;;;;;;20.00;99.90;;;;;;5092662;28;19958;-71
2022/10/27 14:00:12;;;;;;;;;;;19.90;99.90;;;;;;5072139;28;20032;-73
2022/10/27 14:02:59;;;;;;;;;;;19.90;99.90;;;;;;5072161;28;19921;-73
2022/10/27 14:05:45;;;;;;;;;;;19.90;99.90;;;;;;5060677;28;19908;-73
2022/10/27 14:08:23;;;;;;;;;;;20.00;99.90;;;;;;5072249;28;19912;-71
2022/10/27 14:10:50;;;;;;;;;;;20.00;99.90;;;;;;5071648;28;19908;-71
2022/10/27 14:13:21;;;;;;;;;;;20.00;99.90;;;;;;5083799;28;20443;-70
2022/10/27 14:15:50;;;;;;;;;;;20.00;99.90;;;;;;5092534;28;19909;-70
2022/10/27 14:18:33;;;;;;;;;;;19.90;99.90;;;;;;5092503;28;19915;-71
2022/10/27 14:21:07;;;;;;;;;;;19.90;99.90;;;;;;5094664;28;19969;-71
2022/10/27 14:23:34;;;;;;;;;;;19.90;99.90;;;;;;5112546;28;19920;-72
2022/10/27 14:26:20;;;;;;;;;;;19.80;99.90;;;;;;5112657;28;19914;-72
2022/10/27 14:28:47;;;;;;;;;;;19.70;99.90;;;;;;5110542;28;19995;-70
2022/10/27 14:31:18;;;;;;;;;;;19.70;99.90;;;;;;5112057;28;19915;-70
2022/10/27 14:33:46;;;;;;;;;;;19.70;99.90;;;;;;5112065;28;20282;-69